Terminal Aerodrome Forecast
Issued by NWS Nashville, TN

Home | Current Version | Previous Version | Text Only | Print | Product List | Glossary On
Versions: 1 2 3 4 5 6 7 8 9 10 11 12 13 14 15 16 17 18 19 20 21 22 23 24 25 26 27 28 29 30 31 32 33 34 35
490
FTUS44 KOHX 212325
TAFBNA
TAF
KBNA 212325Z 2200/2224 16006KT P6SM SCT040 BKN250
     FM220700 13006KT P6SM VCTS OVC020CB
     FM220900 15006KT 2SM -TSRA BR OVC010CB
     FM221100 16007KT 6SM -SHRA BR OVC015
     FM221500 18009KT P6SM VCSH OVC025
     FM222000 19011G18KT 6SM -SHRA OVC015=

USA.gov is the U.S. government's official web portal to all federal, state and local government web resources and services.